createdAt,value
2022-09-11T00:00:09.401Z,965.37
2022-09-11T00:01:09.408Z,965.39
2022-09-11T00:02:09.376Z,965.35
2022-09-11T00:03:09.376Z,965.30
2022-09-11T00:04:09.371Z,965.36
2022-09-11T00:05:09.339Z,965.32
2022-09-11T00:06:09.338Z,965.33
2022-09-11T00:07:09.365Z,965.30
2022-09-11T00:08:09.286Z,965.32
2022-09-11T00:09:09.338Z,965.33
2022-09-11T00:10:09.314Z,965.28
2022-09-11T00:11:09.279Z,965.32
2022-09-11T00:12:09.254Z,965.31
2022-09-11T00:13:09.233Z,965.29
2022-09-11T00:14:09.221Z,965.29
2022-09-11T00:15:09.690Z,965.28
2022-09-11T00:16:09.225Z,965.23
2022-09-11T00:17:09.237Z,965.25
2022-09-11T00:18:09.173Z,965.32
2022-09-11T00:19:09.162Z,965.29
2022-09-11T00:20:09.168Z,965.30
2022-09-11T00:21:09.163Z,965.36
2022-09-11T00:22:09.166Z,965.29
2022-09-11T00:23:09.152Z,965.32
2022-09-11T00:24:09.113Z,965.32
2022-09-11T00:25:09.096Z,965.27
2022-09-11T00:26:09.083Z,965.37
2022-09-11T00:27:09.121Z,965.31
2022-09-11T00:28:09.094Z,965.32
2022-09-11T00:29:09.069Z,965.31
2022-09-11T00:30:09.038Z,965.27
2022-09-11T00:31:09.056Z,965.28
2022-09-11T00:32:09.052Z,965.26
2022-09-11T00:33:09.039Z,965.32
2022-09-11T00:34:09.006Z,965.29
2022-09-11T00:35:09.010Z,965.31
2022-09-11T00:36:09.052Z,965.35
2022-09-11T00:37:08.960Z,965.30
2022-09-11T00:38:08.964Z,965.28
2022-09-11T00:39:08.975Z,965.25
2022-09-11T00:40:08.987Z,965.26
2022-09-11T00:41:08.915Z,965.25
2022-09-11T00:42:08.916Z,965.31
2022-09-11T00:43:08.898Z,965.24
2022-09-11T00:44:08.917Z,965.30
2022-09-11T00:45:08.905Z,965.25
2022-09-11T00:46:08.966Z,965.29
2022-09-11T00:47:08.847Z,965.28
2022-09-11T00:48:08.852Z,965.26
2022-09-11T00:49:08.864Z,965.26
2022-09-11T00:50:08.824Z,965.29
2022-09-11T00:51:08.808Z,965.25
2022-09-11T00:52:08.848Z,965.21
2022-09-11T00:53:08.777Z,965.26
2022-09-11T00:54:08.863Z,965.26
2022-09-11T00:55:08.773Z,965.23
2022-09-11T00:56:08.768Z,965.22
2022-09-11T00:57:08.750Z,965.26
2022-09-11T00:58:08.719Z,965.21
2022-09-11T00:59:08.728Z,965.17
2022-09-11T01:00:08.737Z,965.24
2022-09-11T01:01:08.767Z,965.24
2022-09-11T01:02:08.726Z,965.20
2022-09-11T01:03:08.665Z,965.21
2022-09-11T01:04:08.691Z,965.22
2022-09-11T01:05:08.643Z,965.23
2022-09-11T01:06:08.652Z,965.14
2022-09-11T01:07:08.632Z,965.15
2022-09-11T01:08:08.642Z,965.18
2022-09-11T01:09:08.597Z,965.19
2022-09-11T01:10:08.601Z,965.16
2022-09-11T01:11:08.574Z,965.11
2022-09-11T01:12:08.586Z,965.12
2022-09-11T01:13:08.587Z,965.10
2022-09-11T01:14:08.559Z,965.11
2022-09-11T01:15:08.532Z,965.12
2022-09-11T01:16:08.572Z,965.09
2022-09-11T01:17:08.513Z,965.09
2022-09-11T01:18:08.533Z,965.12
2022-09-11T01:19:08.493Z,965.09
2022-09-11T01:20:08.470Z,965.11
2022-09-11T01:21:08.483Z,965.08
2022-09-11T01:22:08.449Z,965.10
2022-09-11T01:23:08.454Z,965.07
2022-09-11T01:24:08.463Z,965.09
2022-09-11T01:25:08.448Z,965.05
2022-09-11T01:26:08.456Z,965.07
2022-09-11T01:27:08.397Z,965.07
2022-09-11T01:28:08.385Z,965.07
2022-09-11T01:29:08.391Z,965.11
2022-09-11T01:30:11.629Z,965.05
2022-09-11T01:31:08.433Z,965.05
2022-09-11T01:32:08.335Z,965.09
2022-09-11T01:33:08.325Z,965.07
2022-09-11T01:34:08.351Z,965.03
2022-09-11T01:35:08.305Z,965.08
2022-09-11T01:36:08.319Z,965.07
2022-09-11T01:37:09.158Z,965.06
2022-09-11T01:38:08.266Z,965.10
2022-09-11T01:39:08.260Z,965.09
2022-09-11T01:40:08.363Z,965.07
2022-09-11T01:41:08.252Z,964.97
2022-09-11T01:42:08.254Z,965.03
2022-09-11T01:43:08.270Z,965.02
2022-09-11T01:44:08.284Z,964.98
2022-09-11T01:45:08.196Z,965.00
2022-09-11T01:46:08.180Z,964.99
2022-09-11T01:47:08.196Z,965.04
2022-09-11T01:48:08.198Z,965.02
2022-09-11T01:49:08.205Z,965.06
2022-09-11T01:50:08.169Z,965.05
2022-09-11T01:51:08.133Z,965.04
2022-09-11T01:52:08.125Z,965.04
2022-09-11T01:53:08.129Z,965.02
2022-09-11T01:54:08.087Z,965.03
2022-09-11T01:55:08.078Z,965.04
2022-09-11T01:56:08.112Z,965.05
2022-09-11T01:57:08.093Z,965.04
2022-09-11T01:58:08.067Z,965.03
2022-09-11T01:59:08.070Z,965.06
2022-09-11T02:00:08.074Z,965.02
2022-09-11T02:01:08.071Z,965.05
2022-09-11T02:02:08.076Z,965.02
2022-09-11T02:03:08.007Z,965.05
2022-09-11T02:04:07.980Z,965.08
2022-09-11T02:05:07.965Z,965.05
2022-09-11T02:06:07.995Z,965.03
2022-09-11T02:07:07.942Z,965.09
2022-09-11T02:08:07.964Z,965.09
2022-09-11T02:09:07.950Z,965.10
2022-09-11T02:10:07.951Z,965.08
2022-09-11T02:11:07.950Z,965.10
2022-09-11T02:12:07.902Z,965.11
2022-09-11T02:13:07.875Z,965.07
2022-09-11T02:14:07.901Z,965.04
2022-09-11T02:15:07.883Z,965.10
2022-09-11T02:16:07.915Z,965.07
2022-09-11T02:17:07.885Z,965.06
2022-09-11T02:18:07.818Z,965.12
2022-09-11T02:19:07.815Z,965.13
2022-09-11T02:20:07.846Z,965.05
2022-09-11T02:21:07.810Z,965.05
2022-09-11T02:22:07.772Z,965.04
2022-09-11T02:23:15.667Z,965.03
2022-09-11T02:24:07.761Z,965.03
2022-09-11T02:25:07.795Z,965.04
2022-09-11T02:26:07.751Z,965.07
2022-09-11T02:27:07.754Z,965.06
2022-09-11T02:28:07.728Z,965.04
2022-09-11T02:29:07.723Z,965.00
2022-09-11T02:30:07.716Z,964.98
2022-09-11T02:31:07.772Z,965.01
2022-09-11T02:32:07.692Z,965.00
2022-09-11T02:33:07.697Z,965.00
2022-09-11T02:34:07.642Z,964.97
2022-09-11T02:35:07.643Z,964.97
2022-09-11T02:36:07.643Z,964.99
2022-09-11T02:37:07.660Z,964.99
2022-09-11T02:38:07.640Z,964.96
2022-09-11T02:39:07.589Z,964.93
2022-09-11T02:40:07.615Z,964.96
2022-09-11T02:41:07.572Z,964.92
2022-09-11T02:42:07.587Z,964.98
2022-09-11T02:43:07.569Z,964.92
2022-09-11T02:44:07.570Z,964.95
2022-09-11T02:45:07.525Z,964.92
2022-09-11T02:46:07.503Z,964.90
2022-09-11T02:47:07.522Z,964.90
2022-09-11T02:48:07.517Z,964.92
2022-09-11T02:49:07.491Z,964.90
2022-09-11T02:50:07.519Z,964.89
2022-09-11T02:51:07.492Z,964.91
2022-09-11T02:52:07.439Z,964.88
2022-09-11T02:53:07.459Z,964.93
2022-09-11T02:54:07.429Z,964.93
2022-09-11T02:55:07.436Z,964.92
2022-09-11T02:56:07.391Z,964.90
2022-09-11T02:57:07.454Z,964.87
2022-09-11T02:58:07.381Z,964.93
2022-09-11T02:59:07.362Z,964.85
2022-09-11T03:00:07.386Z,964.88
2022-09-11T03:01:07.401Z,964.90
2022-09-11T03:02:07.401Z,964.94
2022-09-11T03:03:07.320Z,964.91
2022-09-11T03:04:07.347Z,964.89
2022-09-11T03:05:07.304Z,964.85
2022-09-11T03:06:07.312Z,964.81
2022-09-11T03:07:07.304Z,964.82
2022-09-11T03:08:07.258Z,964.88
2022-09-11T03:09:07.256Z,964.88
2022-09-11T03:10:07.267Z,964.87
2022-09-11T03:11:07.239Z,964.84
2022-09-11T03:12:07.238Z,964.88
2022-09-11T03:13:07.206Z,964.83
2022-09-11T03:14:07.193Z,964.91
2022-09-11T03:15:07.258Z,964.89
2022-09-11T03:16:07.292Z,964.87
2022-09-11T03:17:07.178Z,964.84
2022-09-11T03:18:07.188Z,964.83
2022-09-11T03:19:07.139Z,964.80
2022-09-11T03:20:07.125Z,964.83
2022-09-11T03:21:07.118Z,964.81
2022-09-11T03:22:07.151Z,964.85
2022-09-11T03:23:07.118Z,964.84
2022-09-11T03:24:07.087Z,964.88
2022-09-11T03:25:07.072Z,964.88
2022-09-11T03:26:07.063Z,964.84
2022-09-11T03:27:07.073Z,964.84
2022-09-11T03:28:07.079Z,964.91
2022-09-11T03:29:07.054Z,964.85
2022-09-11T03:30:07.062Z,964.89
2022-09-11T03:31:07.069Z,964.83
2022-09-11T03:32:07.020Z,964.85
2022-09-11T03:33:06.982Z,964.83
2022-09-11T03:34:06.985Z,964.83
2022-09-11T03:35:07.001Z,964.79
2022-09-11T03:36:06.948Z,964.81
2022-09-11T03:37:06.938Z,964.83
2022-09-11T03:38:06.935Z,964.82
2022-09-11T03:39:06.923Z,964.81
2022-09-11T03:40:06.966Z,964.79
2022-09-11T03:41:06.933Z,964.85
2022-09-11T03:42:06.888Z,964.79
2022-09-11T03:43:06.878Z,964.78
2022-09-11T03:44:06.877Z,964.83
2022-09-11T03:45:06.859Z,964.77
2022-09-11T03:46:06.897Z,964.75
2022-09-11T03:47:06.860Z,964.78
2022-09-11T03:48:06.835Z,964.80
2022-09-11T03:49:06.807Z,964.80
2022-09-11T03:50:06.815Z,964.78
2022-09-11T03:51:06.795Z,964.82
2022-09-11T03:52:06.805Z,964.85
2022-09-11T03:53:06.763Z,964.83
2022-09-11T03:54:06.756Z,964.83
2022-09-11T03:55:06.749Z,964.78
2022-09-11T03:56:06.728Z,964.81
2022-09-11T03:57:06.760Z,964.78
2022-09-11T03:58:06.735Z,964.78
2022-09-11T03:59:06.739Z,964.79
2022-09-11T04:00:06.694Z,964.81
2022-09-11T04:01:06.729Z,964.79
2022-09-11T04:02:06.752Z,964.77
2022-09-11T04:03:06.702Z,964.75
2022-09-11T04:04:06.702Z,964.75
2022-09-11T04:05:06.629Z,964.74
2022-09-11T04:06:06.685Z,964.80
2022-09-11T04:07:06.693Z,964.77
2022-09-11T04:08:06.638Z,964.82
2022-09-11T04:09:06.602Z,964.77
2022-09-11T04:10:06.572Z,964.79
2022-09-11T04:11:06.562Z,964.80
2022-09-11T04:12:06.559Z,964.82
2022-09-11T04:13:06.566Z,964.80
2022-09-11T04:14:06.544Z,964.77
2022-09-11T04:15:06.547Z,964.71
2022-09-11T04:16:06.551Z,964.78
2022-09-11T04:17:06.496Z,964.75
2022-09-11T04:18:06.527Z,964.75
2022-09-11T04:19:06.512Z,964.83
2022-09-11T04:20:06.502Z,964.80
2022-09-11T04:21:06.479Z,964.82
2022-09-11T04:22:06.439Z,964.81
2022-09-11T04:23:06.495Z,964.78
2022-09-11T04:24:06.435Z,964.77
2022-09-11T04:25:06.428Z,964.84
2022-09-11T04:26:06.415Z,964.80
2022-09-11T04:27:06.383Z,964.78
2022-09-11T04:28:06.375Z,964.80
2022-09-11T04:29:06.397Z,964.86
2022-09-11T04:30:06.353Z,964.74
2022-09-11T04:31:06.362Z,964.71
2022-09-11T04:32:06.368Z,964.80
2022-09-11T04:33:06.317Z,964.69
2022-09-11T04:34:06.308Z,964.78
2022-09-11T04:35:06.320Z,964.77
2022-09-11T04:36:06.330Z,964.71
2022-09-11T04:37:06.296Z,964.75
2022-09-11T04:38:06.293Z,964.74
2022-09-11T04:39:06.250Z,964.75
2022-09-11T04:40:06.351Z,964.77
2022-09-11T04:41:06.258Z,964.73
2022-09-11T04:42:06.222Z,964.77
2022-09-11T04:43:06.243Z,964.73
2022-09-11T04:44:06.198Z,964.76
2022-09-11T04:45:06.184Z,964.74
2022-09-11T04:46:06.272Z,964.76
2022-09-11T04:47:06.165Z,964.75
2022-09-11T04:48:06.163Z,964.79
2022-09-11T04:49:06.182Z,964.78
2022-09-11T04:50:06.132Z,964.73
2022-09-11T04:51:06.143Z,964.74
2022-09-11T04:52:06.154Z,964.75
2022-09-11T04:53:06.121Z,964.77
2022-09-11T04:54:06.101Z,964.72
2022-09-11T04:55:06.112Z,964.78
2022-09-11T04:56:06.109Z,964.71
2022-09-11T04:57:06.050Z,964.77
2022-09-11T04:58:06.056Z,964.77
2022-09-11T04:59:06.063Z,964.74
2022-09-11T05:00:06.042Z,964.78
2022-09-11T05:01:06.075Z,964.75
2022-09-11T05:02:06.040Z,964.80
2022-09-11T05:03:05.993Z,964.78
2022-09-11T05:04:05.995Z,964.80
2022-09-11T05:05:06.003Z,964.77
2022-09-11T05:06:05.977Z,964.75
2022-09-11T05:07:05.975Z,964.76
2022-09-11T05:08:05.951Z,964.72
2022-09-11T05:09:05.925Z,964.76
2022-09-11T05:10:05.935Z,964.79
2022-09-11T05:11:05.940Z,964.76
2022-09-11T05:12:05.915Z,964.80
2022-09-11T05:13:05.873Z,964.85
2022-09-11T05:14:05.870Z,964.82
2022-09-11T05:15:05.867Z,964.83
2022-09-11T05:16:05.908Z,964.79
2022-09-11T05:17:05.850Z,964.80
2022-09-11T05:18:05.851Z,964.82
2022-09-11T05:19:05.806Z,964.80
2022-09-11T05:20:11.177Z,964.79
2022-09-11T05:21:06.829Z,964.77
2022-09-11T05:22:05.920Z,964.78
2022-09-11T05:23:05.787Z,964.78
2022-09-11T05:24:05.769Z,964.80
2022-09-11T05:25:05.741Z,964.79
2022-09-11T05:26:05.736Z,964.81
2022-09-11T05:27:05.744Z,964.89
2022-09-11T05:28:05.723Z,964.91
2022-09-11T05:29:05.727Z,964.85
2022-09-11T05:30:05.686Z,964.82
2022-09-11T05:31:05.674Z,964.89
2022-09-11T05:32:05.674Z,964.85
2022-09-11T05:33:05.658Z,964.87
2022-09-11T05:34:13.788Z,964.88
2022-09-11T05:35:05.657Z,964.87
2022-09-11T05:36:05.619Z,964.91
2022-09-11T05:37:05.614Z,964.92
2022-09-11T05:38:05.622Z,964.89
2022-09-11T05:39:05.594Z,964.91
2022-09-11T05:40:05.694Z,964.92
2022-09-11T05:41:05.598Z,964.90
2022-09-11T05:42:05.555Z,964.95
2022-09-11T05:43:05.547Z,964.94
2022-09-11T05:44:05.557Z,965.00
2022-09-11T05:45:05.544Z,964.96
2022-09-11T05:46:05.595Z,964.97
2022-09-11T05:47:05.531Z,965.01
2022-09-11T05:48:05.487Z,964.98
2022-09-11T05:49:05.498Z,964.95
2022-09-11T05:50:05.472Z,965.03
2022-09-11T05:51:05.465Z,965.11
2022-09-11T05:52:05.461Z,965.03
2022-09-11T05:53:05.440Z,965.03
2022-09-11T05:54:05.423Z,965.02
2022-09-11T05:55:05.431Z,965.04
2022-09-11T05:56:05.415Z,965.02
2022-09-11T05:57:07.748Z,965.05
2022-09-11T05:58:05.408Z,965.09
2022-09-11T05:59:05.362Z,965.07
2022-09-11T06:00:05.378Z,965.04
2022-09-11T06:01:05.849Z,965.08
2022-09-11T06:02:05.411Z,965.11
2022-09-11T06:03:05.337Z,965.10
2022-09-11T06:04:05.309Z,965.16
2022-09-11T06:05:05.297Z,965.15
2022-09-11T06:06:05.315Z,965.21
2022-09-11T06:07:05.304Z,965.17
2022-09-11T06:08:05.277Z,965.20
2022-09-11T06:09:05.273Z,965.25
2022-09-11T06:10:05.288Z,965.28
2022-09-11T06:11:05.234Z,965.28
2022-09-11T06:12:05.238Z,965.22
2022-09-11T06:13:05.236Z,965.26
2022-09-11T06:14:05.218Z,965.23
2022-09-11T06:15:05.212Z,965.28
2022-09-11T06:16:05.175Z,965.27
2022-09-11T06:17:05.180Z,965.26
2022-09-11T06:18:05.284Z,965.30
2022-09-11T06:19:05.152Z,965.22
2022-09-11T06:20:05.157Z,965.24
2022-09-11T06:21:05.118Z,965.24
2022-09-11T06:22:05.160Z,965.24
2022-09-11T06:23:09.161Z,965.25
2022-09-11T06:24:05.113Z,965.22
2022-09-11T06:25:05.084Z,965.20
2022-09-11T06:26:05.100Z,965.17
2022-09-11T06:27:05.096Z,965.20
2022-09-11T06:28:05.060Z,965.23
2022-09-11T06:29:05.034Z,965.30
2022-09-11T06:30:05.050Z,965.28
2022-09-11T06:31:05.048Z,965.26
2022-09-11T06:32:05.035Z,965.24
2022-09-11T06:33:04.986Z,965.31
2022-09-11T06:34:04.975Z,965.32
2022-09-11T06:35:04.966Z,965.27
2022-09-11T06:36:04.982Z,965.31
2022-09-11T06:37:04.962Z,965.29
2022-09-11T06:38:04.953Z,965.32
2022-09-11T06:39:04.921Z,965.35
2022-09-11T06:40:04.937Z,965.32
2022-09-11T06:41:04.934Z,965.30
2022-09-11T06:42:04.897Z,965.35
2022-09-11T06:43:04.899Z,965.36
2022-09-11T06:44:04.920Z,965.34
2022-09-11T06:45:04.858Z,965.39
2022-09-11T06:46:05.815Z,965.40
2022-09-11T06:47:04.860Z,965.37
2022-09-11T06:48:04.838Z,965.36
2022-09-11T06:49:04.842Z,965.36
2022-09-11T06:50:04.837Z,965.40
2022-09-11T06:51:04.786Z,965.38
2022-09-11T06:52:04.784Z,965.43
2022-09-11T06:53:04.797Z,965.39
2022-09-11T06:54:04.774Z,965.45
2022-09-11T06:55:04.770Z,965.49
2022-09-11T06:56:04.774Z,965.47
2022-09-11T06:57:04.739Z,965.46
2022-09-11T06:58:04.710Z,965.45
2022-09-11T06:59:04.745Z,965.49
2022-09-11T07:00:04.736Z,965.49
2022-09-11T07:01:04.890Z,965.52
2022-09-11T07:02:04.939Z,965.50
2022-09-11T07:03:04.672Z,965.51
2022-09-11T07:04:04.645Z,965.44
2022-09-11T07:05:04.650Z,965.54
2022-09-11T07:06:04.645Z,965.50
2022-09-11T07:07:04.607Z,965.55
2022-09-11T07:08:04.658Z,965.54
2022-09-11T07:09:04.586Z,965.58
2022-09-11T07:10:04.614Z,965.52
2022-09-11T07:11:04.580Z,965.54
2022-09-11T07:12:04.595Z,965.61
2022-09-11T07:13:04.540Z,965.52
2022-09-11T07:14:04.535Z,965.59
2022-09-11T07:15:04.531Z,965.64
2022-09-11T07:16:04.533Z,965.60
2022-09-11T07:17:04.520Z,965.67
2022-09-11T07:18:04.521Z,965.66
2022-09-11T07:19:04.476Z,965.67
2022-09-11T07:20:04.480Z,965.66
2022-09-11T07:21:04.450Z,965.70
2022-09-11T07:22:04.493Z,965.71
2022-09-11T07:23:04.452Z,965.71
2022-09-11T07:24:04.419Z,965.72
2022-09-11T07:25:07.575Z,965.70
2022-09-11T07:26:04.399Z,965.72
2022-09-11T07:27:04.419Z,965.69
2022-09-11T07:28:04.394Z,965.72
2022-09-11T07:29:04.392Z,965.80
2022-09-11T07:30:04.351Z,965.75
2022-09-11T07:31:04.438Z,965.73
2022-09-11T07:32:04.369Z,965.75
2022-09-11T07:33:04.320Z,965.83
2022-09-11T07:34:04.330Z,965.75
2022-09-11T07:35:04.342Z,965.78
2022-09-11T07:36:04.285Z,965.77
2022-09-11T07:37:04.280Z,965.75
2022-09-11T07:38:04.291Z,965.84
2022-09-11T07:39:04.264Z,965.78
2022-09-11T07:40:04.305Z,965.83
2022-09-11T07:41:04.282Z,965.84
2022-09-11T07:42:04.220Z,965.87
2022-09-11T07:43:04.224Z,965.87
2022-09-11T07:44:04.224Z,965.82
2022-09-11T07:45:04.201Z,965.86
2022-09-11T07:46:04.235Z,965.87
2022-09-11T07:47:04.169Z,965.91
2022-09-11T07:48:04.170Z,965.85
2022-09-11T07:49:04.141Z,965.92
2022-09-11T07:50:04.157Z,965.89
2022-09-11T07:51:04.141Z,965.92
2022-09-11T07:52:04.150Z,965.90
2022-09-11T07:53:04.153Z,965.93
2022-09-11T07:54:04.107Z,965.92
2022-09-11T07:55:04.159Z,965.96
2022-09-11T07:56:04.071Z,965.97
2022-09-11T07:57:04.079Z,966.00
2022-09-11T07:58:04.073Z,966.05
2022-09-11T07:59:04.042Z,966.06
2022-09-11T08:00:04.027Z,965.99
2022-09-11T08:01:04.122Z,966.01
2022-09-11T08:02:04.078Z,966.06
2022-09-11T08:03:04.010Z,966.04
2022-09-11T08:04:04.039Z,966.10
2022-09-11T08:05:03.961Z,966.03
2022-09-11T08:06:03.977Z,966.00
2022-09-11T08:07:03.972Z,966.00
2022-09-11T08:08:03.945Z,966.04
2022-09-11T08:09:03.950Z,966.01
2022-09-11T08:10:26.217Z,966.07
2022-09-11T08:11:04.928Z,966.06
2022-09-11T08:12:03.895Z,966.07
2022-09-11T08:13:05.937Z,966.11
2022-09-11T08:14:04.914Z,966.12
2022-09-11T08:15:03.851Z,966.06
2022-09-11T08:16:03.837Z,966.11
2022-09-11T08:17:03.841Z,966.11
2022-09-11T08:18:03.857Z,966.18
2022-09-11T08:19:03.855Z,966.15
2022-09-11T08:20:03.841Z,966.14
2022-09-11T08:21:03.785Z,966.16
2022-09-11T08:22:03.772Z,966.24
2022-09-11T08:23:03.836Z,966.20
2022-09-11T08:24:03.788Z,966.21
2022-09-11T08:25:03.762Z,966.24
2022-09-11T08:26:03.764Z,966.28
2022-09-11T08:27:03.763Z,966.26
2022-09-11T08:28:03.713Z,966.30
2022-09-11T08:29:03.697Z,966.27
2022-09-11T08:30:03.696Z,966.30
2022-09-11T08:31:03.751Z,966.30
2022-09-11T08:32:03.706Z,966.32
2022-09-11T08:33:03.647Z,966.31
2022-09-11T08:34:03.646Z,966.32
2022-09-11T08:35:03.674Z,966.33
2022-09-11T08:36:03.642Z,966.37
2022-09-11T08:37:03.629Z,966.32
2022-09-11T08:38:03.742Z,966.41
2022-09-11T08:39:03.608Z,966.37
2022-09-11T08:40:03.647Z,966.41
2022-09-11T08:41:03.570Z,966.33
2022-09-11T08:42:03.593Z,966.41
2022-09-11T08:43:03.588Z,966.38
2022-09-11T08:44:03.528Z,966.43
2022-09-11T08:45:03.522Z,966.40
2022-09-11T08:46:03.571Z,966.39
2022-09-11T08:47:03.518Z,966.42
2022-09-11T08:48:03.499Z,966.40
2022-09-11T08:49:03.504Z,966.41
2022-09-11T08:50:03.466Z,966.36
2022-09-11T08:51:03.461Z,966.44
2022-09-11T08:52:03.547Z,966.41
2022-09-11T08:53:03.430Z,966.47
2022-09-11T08:54:03.434Z,966.46
2022-09-11T08:55:03.404Z,966.46
2022-09-11T08:56:03.406Z,966.50
2022-09-11T08:57:03.384Z,966.47
2022-09-11T08:58:03.410Z,966.47
2022-09-11T08:59:03.377Z,966.45
2022-09-11T09:00:03.376Z,966.53
2022-09-11T09:01:03.458Z,966.52
2022-09-11T09:02:03.391Z,966.57
2022-09-11T09:03:03.348Z,966.55
2022-09-11T09:04:03.348Z,966.53
2022-09-11T09:05:03.319Z,966.55
2022-09-11T09:06:03.307Z,966.52
2022-09-11T09:07:03.276Z,966.52
2022-09-11T09:08:03.271Z,966.55
2022-09-11T09:09:03.264Z,966.54
2022-09-11T09:10:03.252Z,966.56
2022-09-11T09:11:03.253Z,966.56
2022-09-11T09:12:03.261Z,966.59
2022-09-11T09:13:03.202Z,966.64
2022-09-11T09:14:03.200Z,966.64
2022-09-11T09:15:03.222Z,966.67
2022-09-11T09:16:03.217Z,966.69
2022-09-11T09:17:03.190Z,966.70
2022-09-11T09:18:03.142Z,966.69
2022-09-11T09:19:03.150Z,966.72
2022-09-11T09:20:03.159Z,966.78
2022-09-11T09:21:03.142Z,966.74
2022-09-11T09:22:03.129Z,966.76
2022-09-11T09:23:03.126Z,966.71
2022-09-11T09:24:03.091Z,966.73
2022-09-11T09:25:03.092Z,966.73
2022-09-11T09:26:03.154Z,966.75
2022-09-11T09:27:03.137Z,966.76
2022-09-11T09:28:03.074Z,966.74
2022-09-11T09:29:03.020Z,966.76
2022-09-11T09:30:03.009Z,966.77
2022-09-11T09:31:03.085Z,966.79
2022-09-11T09:32:03.002Z,966.78
2022-09-11T09:33:02.981Z,966.88
2022-09-11T09:34:02.985Z,966.83
2022-09-11T09:35:02.957Z,966.87
2022-09-11T09:36:02.952Z,966.79
2022-09-11T09:37:02.930Z,966.84
2022-09-11T09:38:02.967Z,966.87
2022-09-11T09:39:02.935Z,966.87
2022-09-11T09:40:02.978Z,966.88
2022-09-11T09:41:02.939Z,966.89
2022-09-11T09:42:02.872Z,966.88
2022-09-11T09:43:02.903Z,966.91
2022-09-11T09:44:02.867Z,966.88
2022-09-11T09:45:02.863Z,966.84
2022-09-11T09:46:02.873Z,966.91
2022-09-11T09:47:02.825Z,966.84
2022-09-11T09:48:02.808Z,966.84
2022-09-11T09:49:02.838Z,966.84
2022-09-11T09:50:02.817Z,966.91
2022-09-11T09:51:02.805Z,966.92
2022-09-11T09:52:04.542Z,966.89
2022-09-11T09:53:02.750Z,966.92
2022-09-11T09:54:02.764Z,966.95
2022-09-11T09:55:02.738Z,966.87
2022-09-11T09:56:02.764Z,966.94
2022-09-11T09:57:02.751Z,966.87
2022-09-11T09:58:02.697Z,966.90
2022-09-11T09:59:02.713Z,966.92
2022-09-11T10:00:02.677Z,966.91
2022-09-11T10:01:02.715Z,966.94
2022-09-11T10:02:02.790Z,966.98
2022-09-11T10:03:02.636Z,966.96
2022-09-11T10:04:02.638Z,966.93
2022-09-11T10:05:02.615Z,966.96
2022-09-11T10:06:02.619Z,966.96
2022-09-11T10:07:02.618Z,966.99
2022-09-11T10:08:02.626Z,966.94
2022-09-11T10:09:03.573Z,966.97
2022-09-11T10:10:02.582Z,967.02
2022-09-11T10:11:02.564Z,966.98
2022-09-11T10:12:02.572Z,966.96
2022-09-11T10:13:18.646Z,966.98
2022-09-11T10:14:03.525Z,966.94
2022-09-11T10:15:02.516Z,966.94
2022-09-11T10:16:02.556Z,966.95
2022-09-11T10:17:02.491Z,966.92
2022-09-11T10:18:02.491Z,967.02
2022-09-11T10:19:02.497Z,966.95
2022-09-11T10:20:02.445Z,966.95
2022-09-11T10:21:05.859Z,966.95
2022-09-11T10:22:03.437Z,966.95
2022-09-11T10:23:02.431Z,966.99
2022-09-11T10:24:02.450Z,966.99
2022-09-11T10:25:02.432Z,967.01
2022-09-11T10:26:02.378Z,967.01
2022-09-11T10:27:02.383Z,967.03
2022-09-11T10:28:02.376Z,967.00
2022-09-11T10:29:02.362Z,967.04
2022-09-11T10:30:02.367Z,967.08
2022-09-11T10:31:02.457Z,967.06
2022-09-11T10:32:02.319Z,967.03
2022-09-11T10:33:03.678Z,967.05
2022-09-11T10:34:02.296Z,967.08
2022-09-11T10:35:02.292Z,967.04
2022-09-11T10:36:02.302Z,967.11
2022-09-11T10:37:02.252Z,967.13
2022-09-11T10:38:02.256Z,967.09
2022-09-11T10:39:02.230Z,967.10
2022-09-11T10:40:02.274Z,967.01
2022-09-11T10:41:02.241Z,966.99
2022-09-11T10:42:02.244Z,967.08
2022-09-11T10:43:02.189Z,967.02
2022-09-11T10:44:02.203Z,967.04
2022-09-11T10:45:02.170Z,967.03
2022-09-11T10:46:02.249Z,967.02
2022-09-11T10:47:02.174Z,967.07
2022-09-11T10:48:02.180Z,967.02
2022-09-11T10:49:02.138Z,967.10
2022-09-11T10:50:02.107Z,967.03
2022-09-11T10:51:02.100Z,967.03
2022-09-11T10:52:02.111Z,967.03
2022-09-11T10:53:02.159Z,967.08
2022-09-11T10:54:02.059Z,967.06
2022-09-11T10:55:02.068Z,967.04
2022-09-11T10:56:02.039Z,967.09
2022-09-11T10:57:02.079Z,967.07
2022-09-11T10:58:02.037Z,967.09
2022-09-11T10:59:02.054Z,967.05
2022-09-11T11:00:02.025Z,967.09
2022-09-11T11:01:02.046Z,967.11
2022-09-11T11:02:01.990Z,967.12
2022-09-11T11:03:02.017Z,967.09
2022-09-11T11:04:01.985Z,967.07
2022-09-11T11:05:01.989Z,967.15
2022-09-11T11:06:01.940Z,967.12
2022-09-11T11:07:01.923Z,967.09
2022-09-11T11:08:01.908Z,967.13
2022-09-11T11:09:01.920Z,967.15
2022-09-11T11:10:01.922Z,967.11
2022-09-11T11:11:01.930Z,967.08
2022-09-11T11:12:01.874Z,967.07
2022-09-11T11:13:01.869Z,967.13
2022-09-11T11:14:01.851Z,967.11
2022-09-11T11:15:01.856Z,967.12
2022-09-11T11:16:01.945Z,967.10
2022-09-11T11:17:01.812Z,967.11
2022-09-11T11:18:01.792Z,967.17
2022-09-11T11:19:01.820Z,967.10
2022-09-11T11:20:01.788Z,967.09
2022-09-11T11:21:01.797Z,967.10
2022-09-11T11:22:01.808Z,967.15
2022-09-11T11:23:01.752Z,967.15
2022-09-11T11:24:01.757Z,967.14
2022-09-11T11:25:01.727Z,967.20
2022-09-11T11:26:01.728Z,967.16
2022-09-11T11:27:01.729Z,967.14
2022-09-11T11:28:01.740Z,967.17
2022-09-11T11:29:01.672Z,967.16
2022-09-11T11:30:01.695Z,967.16
2022-09-11T11:31:01.712Z,967.16
2022-09-11T11:32:01.693Z,967.17
2022-09-11T11:33:01.687Z,967.19
2022-09-11T11:34:01.621Z,967.20
2022-09-11T11:35:01.613Z,967.21
2022-09-11T11:36:01.595Z,967.17
2022-09-11T11:37:01.639Z,967.18
2022-09-11T11:38:01.604Z,967.15
2022-09-11T11:39:01.628Z,967.18
2022-09-11T11:40:01.607Z,967.19
2022-09-11T11:41:01.535Z,967.16
2022-09-11T11:42:01.570Z,967.22
2022-09-11T11:43:01.546Z,967.24
2022-09-11T11:44:01.543Z,967.25
2022-09-11T11:45:01.491Z,967.30
2022-09-11T11:46:01.585Z,967.29
2022-09-11T11:47:01.474Z,967.29
2022-09-11T11:48:01.491Z,967.30
2022-09-11T11:49:01.482Z,967.35
2022-09-11T11:50:01.481Z,967.34
2022-09-11T11:51:01.429Z,967.33
2022-09-11T11:52:01.426Z,967.38
2022-09-11T11:53:01.444Z,967.35
2022-09-11T11:54:01.407Z,967.44
2022-09-11T11:55:01.442Z,967.41
2022-09-11T11:56:01.370Z,967.38
2022-09-11T11:57:01.368Z,967.42
2022-09-11T11:58:01.344Z,967.43
2022-09-11T11:59:01.368Z,967.48
2022-09-11T12:00:01.348Z,967.43
2022-09-11T12:01:01.374Z,967.42
2022-09-11T12:02:01.358Z,967.40
2022-09-11T12:03:01.304Z,967.43
2022-09-11T12:04:01.298Z,967.40
2022-09-11T12:05:01.277Z,967.41
2022-09-11T12:06:01.284Z,967.42
2022-09-11T12:07:01.314Z,967.40
2022-09-11T12:08:01.238Z,967.37
2022-09-11T12:09:01.222Z,967.38
2022-09-11T12:10:01.261Z,967.40
2022-09-11T12:11:01.218Z,967.41
2022-09-11T12:12:01.227Z,967.40
2022-09-11T12:13:01.178Z,967.40
2022-09-11T12:14:01.176Z,967.41
2022-09-11T12:15:01.233Z,967.42
2022-09-11T12:16:01.241Z,967.37
2022-09-11T12:17:01.165Z,967.40
2022-09-11T12:18:01.157Z,967.40
2022-09-11T12:19:01.112Z,967.40
2022-09-11T12:20:01.134Z,967.41
2022-09-11T12:21:01.104Z,967.42
2022-09-11T12:22:01.129Z,967.38
2022-09-11T12:23:01.144Z,967.38
2022-09-11T12:24:01.061Z,967.40
2022-09-11T12:25:01.049Z,967.41
2022-09-11T12:26:01.055Z,967.41
2022-09-11T12:27:01.471Z,967.42
2022-09-11T12:28:01.027Z,967.40